createdAt,value
2023-04-27T00:01:14.461Z,237.20
2023-04-27T00:03:42.083Z,333.10
2023-04-27T00:06:09.780Z,271.40
2023-04-27T00:08:37.005Z,328.25
2023-04-27T00:11:03.769Z,256.83
2023-04-27T00:13:30.509Z,286.38
2023-04-27T00:15:56.998Z,286.35
2023-04-27T00:18:23.540Z,307.98
2023-04-27T00:20:50.077Z,394.08
2023-04-27T00:23:16.757Z,394.50
2023-04-27T00:25:43.274Z,317.23
2023-04-27T00:28:10.925Z,362.50
2023-04-27T00:30:37.699Z,287.00
2023-04-27T00:33:04.306Z,220.68
2023-04-27T00:35:32.728Z,282.80
2023-04-27T00:37:59.229Z,274.98
2023-04-27T00:40:26.787Z,197.38
2023-04-27T00:42:53.349Z,250.80
2023-04-27T00:45:19.851Z,185.05
2023-04-27T00:47:46.406Z,166.93
2023-04-27T00:50:13.110Z,123.80
2023-04-27T00:52:39.740Z,184.10
2023-04-27T00:55:07.141Z,146.43
2023-04-27T00:57:34.237Z,223.32
2023-04-27T01:00:02.144Z,181.43
2023-04-27T01:02:30.062Z,191.88
2023-04-27T01:07:26.728Z,211.63
2023-04-27T01:09:53.414Z,222.82
2023-04-27T01:12:19.882Z,225.30
2023-04-27T01:17:14.538Z,293.48
2023-04-27T01:19:41.145Z,219.43
2023-04-27T01:22:07.771Z,183.85
2023-04-27T01:24:34.272Z,194.25
2023-04-27T01:27:01.928Z,222.23
2023-04-27T01:29:28.552Z,207.95
2023-04-27T01:31:55.081Z,209.98
2023-04-27T01:34:22.832Z,190.82
2023-04-27T01:36:49.353Z,231.00
2023-04-27T01:39:16.315Z,168.52
2023-04-27T01:41:42.868Z,246.00
2023-04-27T01:44:09.682Z,179.23
2023-04-27T01:46:36.328Z,159.27
2023-04-27T01:49:02.915Z,83.93
2023-04-27T01:51:29.421Z,45.15
2023-04-27T01:53:55.954Z,31.73
2023-04-27T01:56:22.473Z,32.35
2023-04-27T01:58:49.013Z,41.80
2023-04-27T02:01:15.724Z,31.27
2023-04-27T02:03:42.677Z,12.05
2023-04-27T02:06:09.425Z,5.45
2023-04-27T02:08:35.984Z,5.40
2023-04-27T02:11:02.479Z,3.78
2023-04-27T02:13:28.988Z,3.70
2023-04-27T02:15:56.165Z,3.60
2023-04-27T02:18:23.002Z,3.65
2023-04-27T02:20:49.497Z,3.88
2023-04-27T02:23:16.154Z,3.22
2023-04-27T02:25:46.516Z,3.70
2023-04-27T02:28:14.018Z,3.63
2023-04-27T02:30:40.948Z,3.60
2023-04-27T02:33:07.689Z,3.50
2023-04-27T02:35:34.270Z,3.58
2023-04-27T02:38:00.732Z,2.90
2023-04-27T02:40:27.252Z,3.42
2023-04-27T02:42:53.736Z,3.70
2023-04-27T02:45:20.345Z,3.30
2023-04-27T02:47:46.877Z,2.80
2023-04-27T02:50:13.782Z,3.47
2023-04-27T02:52:40.345Z,3.20
2023-04-27T02:55:07.122Z,3.13
2023-04-27T02:57:33.673Z,6.30
2023-04-27T03:00:00.470Z,6.68
2023-04-27T03:02:27.626Z,27.13
2023-04-27T03:04:57.496Z,32.67
2023-04-27T03:07:24.079Z,46.58
2023-04-27T03:09:50.595Z,47.88
2023-04-27T03:12:17.418Z,44.47
2023-04-27T03:14:43.948Z,52.67
2023-04-27T03:17:10.489Z,144.27
2023-04-27T03:19:37.079Z,69.88
2023-04-27T03:22:03.801Z,37.95
2023-04-27T03:24:30.887Z,32.63
2023-04-27T03:26:57.363Z,37.72
2023-04-27T03:29:23.902Z,46.47
2023-04-27T03:31:50.592Z,35.78
2023-04-27T03:34:17.158Z,14.77
2023-04-27T03:36:43.740Z,22.45
2023-04-27T03:39:10.219Z,9.88
2023-04-27T03:41:36.777Z,11.00
2023-04-27T03:44:03.335Z,9.00
2023-04-27T03:46:30.187Z,7.97
2023-04-27T03:48:56.847Z,2.95
2023-04-27T03:51:23.470Z,2.75
2023-04-27T03:53:50.404Z,3.95
2023-04-27T03:56:17.222Z,3.17
2023-04-27T03:58:44.569Z,3.25
2023-04-27T04:01:14.803Z,3.17
2023-04-27T04:03:41.517Z,4.35
2023-04-27T04:06:08.817Z,5.80
2023-04-27T04:08:35.366Z,6.00
2023-04-27T04:11:01.928Z,3.17
2023-04-27T04:13:28.962Z,4.18
2023-04-27T04:16:06.937Z,3.28
2023-04-27T04:18:34.705Z,5.20
2023-04-27T04:21:01.259Z,3.65
2023-04-27T04:23:27.857Z,3.70
2023-04-27T04:25:56.629Z,3.72
2023-04-27T04:28:24.999Z,4.07
2023-04-27T04:30:52.358Z,5.28
2023-04-27T04:33:18.963Z,3.60
2023-04-27T04:35:46.102Z,5.22
2023-04-27T04:38:12.942Z,4.95
2023-04-27T04:40:41.961Z,6.88
2023-04-27T04:43:09.556Z,4.88
2023-04-27T04:45:36.526Z,7.10
2023-04-27T04:48:04.063Z,4.97
2023-04-27T04:50:30.736Z,7.35
2023-04-27T04:52:57.251Z,7.03
2023-04-27T04:55:26.109Z,6.25
2023-04-27T04:57:52.683Z,8.73
2023-04-27T05:00:19.314Z,18.77
2023-04-27T05:02:45.967Z,27.38
2023-04-27T05:05:12.577Z,44.35
2023-04-27T05:07:39.271Z,52.95
2023-04-27T05:10:06.386Z,56.63
2023-04-27T05:12:33.152Z,82.05
2023-04-27T05:14:59.659Z,178.07
2023-04-27T05:17:26.563Z,101.22
2023-04-27T05:19:53.264Z,137.48
2023-04-27T05:22:19.967Z,171.15
2023-04-27T05:24:46.532Z,125.38
2023-04-27T05:27:14.709Z,94.32
2023-04-27T05:29:41.206Z,61.58
2023-04-27T05:32:07.920Z,63.15
2023-04-27T05:34:34.480Z,48.38
2023-04-27T05:37:01.360Z,61.05
2023-04-27T05:39:27.895Z,67.32
2023-04-27T05:41:54.494Z,65.68
2023-04-27T05:44:21.043Z,71.20
2023-04-27T05:46:47.529Z,83.28
2023-04-27T05:49:14.137Z,84.18
2023-04-27T05:51:41.329Z,82.65
2023-04-27T05:54:08.526Z,70.93
2023-04-27T05:56:35.103Z,76.68
2023-04-27T05:59:02.663Z,78.80
2023-04-27T06:01:29.471Z,78.82
2023-04-27T06:03:56.138Z,77.50
2023-04-27T06:06:22.795Z,82.13
2023-04-27T06:08:49.309Z,85.30
2023-04-27T06:11:16.397Z,83.50
2023-04-27T06:13:43.409Z,80.38
2023-04-27T06:16:09.976Z,76.15
2023-04-27T06:18:36.548Z,76.88
2023-04-27T06:21:03.577Z,75.47
2023-04-27T06:23:30.133Z,76.60
2023-04-27T06:25:57.138Z,77.72
2023-04-27T06:28:23.653Z,77.45
2023-04-27T06:30:50.147Z,77.05
2023-04-27T06:33:16.729Z,72.07
2023-04-27T06:35:45.737Z,65.63
2023-04-27T06:38:13.865Z,59.53
2023-04-27T06:40:40.390Z,60.05
2023-04-27T06:43:06.875Z,57.38
2023-04-27T06:45:33.362Z,60.35
2023-04-27T06:47:59.874Z,60.70
2023-04-27T06:50:26.703Z,60.08
2023-04-27T06:52:53.401Z,56.67
2023-04-27T06:55:20.041Z,50.53
2023-04-27T06:57:46.518Z,55.03
2023-04-27T07:00:13.567Z,59.67
2023-04-27T07:02:40.129Z,63.20
2023-04-27T07:05:06.855Z,60.20
2023-04-27T07:07:33.370Z,64.60
2023-04-27T07:09:59.854Z,72.63
2023-04-27T07:12:26.883Z,75.13
2023-04-27T07:14:53.390Z,73.38
2023-04-27T07:17:20.080Z,74.05
2023-04-27T07:19:46.737Z,71.57
2023-04-27T07:22:13.322Z,74.55
2023-04-27T07:24:39.866Z,74.47
2023-04-27T07:27:07.155Z,70.80
2023-04-27T07:29:34.009Z,72.45
2023-04-27T07:32:00.998Z,73.00
2023-04-27T07:34:32.848Z,63.58
2023-04-27T07:37:05.492Z,66.63
2023-04-27T07:39:32.005Z,75.47
2023-04-27T07:41:58.471Z,75.70
2023-04-27T07:44:24.981Z,77.15
2023-04-27T07:46:58.511Z,76.28
2023-04-27T07:49:26.182Z,80.60
2023-04-27T07:51:52.707Z,80.45
2023-04-27T07:54:19.225Z,84.85
2023-04-27T07:56:45.858Z,87.00
2023-04-27T07:59:12.951Z,91.72
2023-04-27T08:01:39.799Z,93.78
2023-04-27T08:04:06.682Z,141.85
2023-04-27T08:06:33.824Z,130.27
2023-04-27T08:09:01.983Z,139.73
2023-04-27T08:11:28.516Z,134.57
2023-04-27T08:13:54.978Z,146.98
2023-04-27T08:16:21.501Z,125.95
2023-04-27T08:18:49.504Z,148.02
2023-04-27T08:21:16.197Z,154.90
2023-04-27T08:23:43.794Z,146.85
2023-04-27T08:26:14.849Z,100.50
2023-04-27T08:28:41.312Z,132.55
2023-04-27T08:31:07.833Z,152.07
2023-04-27T08:33:34.392Z,103.60
2023-04-27T08:36:01.084Z,179.48
2023-04-27T08:38:27.665Z,163.63
2023-04-27T08:40:54.261Z,181.20
2023-04-27T08:43:20.812Z,177.30
2023-04-27T08:45:50.143Z,194.85
2023-04-27T08:48:16.813Z,205.80
2023-04-27T08:50:44.838Z,260.48
2023-04-27T08:53:21.458Z,238.45
2023-04-27T08:55:48.407Z,249.82
2023-04-27T08:58:14.896Z,230.18
2023-04-27T09:00:43.622Z,229.35
2023-04-27T09:03:26.039Z,216.27
2023-04-27T09:06:04.470Z,251.43
2023-04-27T09:08:46.381Z,247.40
2023-04-27T09:11:16.558Z,339.73
2023-04-27T09:13:45.258Z,346.60
2023-04-27T09:16:15.099Z,361.75
2023-04-27T09:18:43.512Z,334.35
2023-04-27T09:21:10.088Z,329.77
2023-04-27T09:23:38.609Z,311.90
2023-04-27T09:26:09.803Z,329.95
2023-04-27T09:28:40.302Z,351.55
2023-04-27T09:31:09.265Z,302.02
2023-04-27T09:33:36.663Z,220.70
2023-04-27T09:36:06.780Z,305.77
2023-04-27T09:38:33.485Z,250.75
2023-04-27T09:41:00.486Z,309.13
2023-04-27T09:43:28.795Z,352.20
2023-04-27T09:45:55.717Z,393.38
2023-04-27T09:48:23.872Z,359.63
2023-04-27T09:50:51.920Z,308.30
2023-04-27T09:53:26.443Z,311.25
2023-04-27T09:56:11.437Z,324.25
2023-04-27T09:59:07.672Z,290.48
2023-04-27T10:01:47.633Z,305.05
2023-04-27T10:04:42.832Z,310.17
2023-04-27T10:07:12.848Z,263.20
2023-04-27T10:09:45.183Z,263.95
2023-04-27T10:12:14.675Z,268.25
2023-04-27T10:14:51.984Z,229.13
2023-04-27T10:17:19.796Z,245.75
2023-04-27T10:22:24.986Z,71.47
2023-04-27T10:24:52.156Z,78.80
2023-04-27T10:27:21.666Z,138.43
2023-04-27T10:29:49.614Z,3.45
2023-04-27T10:32:26.345Z,34.00
2023-04-27T10:35:05.164Z,53.13
2023-04-27T10:37:42.340Z,66.65
2023-04-27T10:40:19.300Z,89.60
2023-04-27T10:42:49.198Z,131.93
2023-04-27T10:45:28.458Z,180.65
2023-04-27T10:48:01.117Z,103.70
2023-04-27T10:50:28.088Z,145.48
2023-04-27T10:52:54.606Z,239.30
2023-04-27T10:55:22.347Z,248.00
2023-04-27T10:57:51.126Z,222.68
2023-04-27T11:00:35.155Z,214.50
2023-04-27T11:03:12.584Z,241.30
2023-04-27T11:05:40.425Z,184.95
2023-04-27T11:08:08.259Z,259.75
2023-04-27T11:10:35.896Z,243.57
2023-04-27T11:13:10.195Z,248.38
2023-04-27T11:15:47.620Z,303.80
2023-04-27T11:18:15.714Z,290.15
2023-04-27T11:20:48.588Z,433.10
2023-04-27T11:23:28.805Z,428.40
2023-04-27T11:25:56.425Z,436.92
2023-04-27T11:28:24.175Z,452.83
2023-04-27T11:31:00.750Z,441.00
2023-04-27T11:33:27.954Z,479.92
2023-04-27T11:35:54.546Z,353.20
2023-04-27T11:38:21.931Z,320.92
2023-04-27T11:43:28.481Z,399.55
2023-04-27T11:45:56.153Z,483.63
2023-04-27T11:48:23.419Z,495.77
2023-04-27T11:50:50.820Z,528.70
2023-04-27T11:53:19.000Z,362.05
2023-04-27T11:55:52.546Z,354.40
2023-04-27T11:58:19.200Z,403.38
2023-04-27T12:00:47.524Z,452.50
2023-04-27T12:03:14.257Z,431.85
2023-04-27T12:05:49.331Z,421.17
2023-04-27T12:08:17.043Z,448.38
2023-04-27T12:10:44.343Z,461.17
2023-04-27T12:13:11.810Z,455.95
2023-04-27T12:15:39.036Z,445.35
2023-04-27T12:18:06.257Z,445.00
2023-04-27T12:20:33.992Z,443.10
2023-04-27T12:23:00.748Z,460.05
2023-04-27T12:25:27.248Z,446.13
2023-04-27T12:27:54.281Z,454.15
2023-04-27T12:30:23.158Z,466.15
2023-04-27T12:32:49.641Z,453.42
2023-04-27T12:35:16.209Z,467.90
2023-04-27T12:37:42.872Z,486.50
2023-04-27T12:40:10.016Z,462.67
2023-04-27T12:42:36.610Z,504.20
2023-04-27T12:47:53.907Z,251.07
2023-04-27T12:50:18.571Z,400.35
2023-04-27T12:52:45.166Z,417.02
2023-04-27T12:55:24.817Z,322.45
2023-04-27T12:57:58.268Z,461.37
2023-04-27T13:00:25.278Z,374.70
2023-04-27T13:02:52.765Z,382.38
2023-04-27T13:05:19.904Z,524.50
2023-04-27T13:07:46.718Z,133.70
2023-04-27T13:10:13.225Z,152.52
2023-04-27T13:12:39.710Z,133.40
2023-04-27T13:15:07.804Z,136.43
2023-04-27T13:17:34.383Z,108.85
2023-04-27T13:20:01.036Z,130.10
2023-04-27T13:22:28.017Z,109.40
2023-04-27T13:24:54.873Z,108.38
2023-04-27T13:27:22.479Z,112.82
2023-04-27T13:29:51.164Z,126.45
2023-04-27T13:32:18.610Z,115.93
2023-04-27T13:34:45.425Z,104.55
2023-04-27T13:37:12.176Z,125.25
2023-04-27T13:39:38.696Z,112.07
2023-04-27T13:42:06.198Z,133.00
2023-04-27T13:44:32.860Z,166.55
2023-04-27T13:56:45.673Z,236.50
2023-04-27T13:59:12.475Z,219.85
2023-04-27T14:04:06.787Z,182.50
2023-04-27T14:06:33.436Z,224.97
2023-04-27T14:16:19.329Z,210.30
2023-04-27T14:18:45.913Z,242.20
2023-04-27T14:21:12.531Z,161.50
2023-04-27T14:28:32.351Z,183.70
2023-04-27T14:30:59.259Z,200.80
2023-04-27T14:33:25.936Z,210.90
2023-04-27T14:35:52.424Z,209.90
2023-04-27T14:38:18.895Z,114.90
2023-04-27T14:40:45.759Z,137.40
2023-04-27T14:43:12.255Z,133.40
2023-04-27T14:45:50.106Z,211.50
2023-04-27T14:48:18.164Z,136.23
2023-04-27T14:50:44.885Z,152.43
2023-04-27T14:53:11.344Z,195.95
2023-04-27T14:55:37.872Z,177.45
2023-04-27T14:58:04.369Z,105.00
2023-04-27T15:00:31.477Z,61.57
2023-04-27T15:02:58.026Z,61.65
2023-04-27T15:05:25.159Z,77.10
2023-04-27T15:07:51.654Z,81.97
2023-04-27T15:10:18.283Z,95.75
2023-04-27T15:12:45.485Z,80.75
2023-04-27T15:15:12.900Z,83.00
2023-04-27T15:17:39.625Z,85.13
2023-04-27T15:20:06.858Z,117.30
2023-04-27T15:22:33.506Z,86.40
2023-04-27T15:25:00.045Z,84.47
2023-04-27T15:27:26.532Z,61.17
2023-04-27T15:29:58.034Z,65.05
2023-04-27T15:32:29.786Z,137.35
2023-04-27T15:34:59.930Z,140.90
2023-04-27T15:37:28.092Z,126.20
2023-04-27T15:39:55.243Z,141.32
2023-04-27T15:42:21.799Z,137.98
2023-04-27T15:44:48.329Z,146.25
2023-04-27T15:47:15.319Z,146.20
2023-04-27T15:49:53.668Z,147.23
2023-04-27T15:52:23.055Z,151.15
2023-04-27T15:54:49.547Z,148.48
2023-04-27T15:57:16.157Z,145.40
2023-04-27T15:59:42.656Z,146.80
2023-04-27T16:02:09.356Z,147.18
2023-04-27T16:04:35.903Z,148.30
2023-04-27T16:07:02.515Z,149.70
2023-04-27T16:09:29.081Z,148.20
2023-04-27T16:11:55.815Z,147.68
2023-04-27T16:14:22.332Z,145.15
2023-04-27T16:16:48.831Z,147.80
2023-04-27T16:19:16.034Z,149.25
2023-04-27T16:21:42.761Z,149.70
2023-04-27T16:24:09.291Z,147.40
2023-04-27T16:26:35.736Z,146.60
2023-04-27T16:29:02.219Z,140.52
2023-04-27T16:31:28.927Z,139.60
2023-04-27T16:33:55.472Z,138.70
2023-04-27T16:36:22.040Z,140.80
2023-04-27T16:38:48.508Z,141.95
2023-04-27T16:41:15.001Z,253.00
2023-04-27T16:43:41.496Z,146.18
2023-04-27T16:46:09.977Z,150.15
2023-04-27T16:48:36.700Z,165.30
2023-04-27T16:51:03.803Z,158.50
2023-04-27T16:53:30.268Z,156.40
2023-04-27T16:55:59.502Z,152.93
2023-04-27T16:58:26.020Z,150.23
2023-04-27T17:00:52.567Z,146.60
2023-04-27T17:03:19.129Z,149.80
2023-04-27T17:05:45.816Z,176.27
2023-04-27T17:08:13.319Z,183.50
2023-04-27T17:10:39.881Z,163.20
2023-04-27T17:13:07.692Z,160.57
2023-04-27T17:15:34.267Z,159.40
2023-04-27T17:18:04.500Z,149.50
2023-04-27T17:20:31.211Z,155.20
2023-04-27T17:22:57.924Z,153.63
2023-04-27T17:25:24.485Z,154.43
2023-04-27T17:27:51.259Z,183.90
2023-04-27T17:30:17.782Z,166.07
2023-04-27T17:32:44.351Z,148.10
2023-04-27T17:35:11.571Z,153.40
2023-04-27T17:37:38.103Z,154.40
2023-04-27T17:40:07.868Z,147.80
2023-04-27T17:42:34.365Z,147.40
2023-04-27T17:45:01.043Z,147.02
2023-04-27T17:47:27.785Z,169.57
2023-04-27T17:49:54.498Z,188.90
2023-04-27T17:52:20.996Z,181.20
2023-04-27T17:54:48.405Z,177.97
2023-04-27T17:57:14.898Z,192.33
2023-04-27T17:59:41.488Z,181.10
2023-04-27T18:02:08.159Z,174.80
2023-04-27T18:04:34.996Z,143.90
2023-04-27T18:07:01.634Z,150.45
2023-04-27T18:09:29.428Z,141.27
2023-04-27T18:11:57.262Z,144.90
2023-04-27T18:14:23.757Z,146.80
2023-04-27T18:16:50.517Z,144.65
2023-04-27T18:19:17.456Z,147.18
2023-04-27T18:21:44.132Z,147.35
2023-04-27T18:24:10.639Z,146.77
2023-04-27T18:26:37.323Z,147.93
2023-04-27T18:29:03.944Z,150.07
2023-04-27T18:31:30.433Z,149.80
2023-04-27T18:33:56.985Z,150.93
2023-04-27T18:36:25.576Z,152.60
2023-04-27T18:38:52.195Z,147.10
2023-04-27T18:41:19.277Z,138.83
2023-04-27T18:43:45.941Z,144.25
2023-04-27T18:46:12.527Z,141.43
2023-04-27T18:48:39.074Z,138.98
2023-04-27T18:51:05.556Z,142.85
2023-04-27T18:53:32.092Z,137.90
2023-04-27T18:55:58.722Z,144.30
2023-04-27T18:58:25.289Z,144.63
2023-04-27T19:00:52.148Z,146.45
2023-04-27T19:03:19.202Z,143.88
2023-04-27T19:05:46.101Z,145.70
2023-04-27T19:08:12.875Z,144.35
2023-04-27T19:10:42.517Z,144.23
2023-04-27T19:13:09.121Z,141.75
2023-04-27T19:15:35.776Z,139.70
2023-04-27T19:18:10.665Z,139.80
2023-04-27T19:20:39.012Z,134.45
2023-04-27T19:23:05.839Z,136.90
2023-04-27T19:25:32.535Z,135.35
2023-04-27T19:27:59.270Z,140.18
2023-04-27T19:30:26.317Z,135.85
2023-04-27T19:32:52.909Z,183.57
2023-04-27T19:35:20.365Z,147.70
2023-04-27T19:37:46.895Z,144.20
2023-04-27T19:40:13.674Z,138.80
2023-04-27T19:42:40.353Z,124.97
2023-04-27T19:45:07.374Z,91.35
2023-04-27T19:47:33.997Z,133.70
2023-04-27T19:50:00.592Z,132.13
2023-04-27T19:52:27.195Z,128.13
2023-04-27T19:54:54.536Z,123.90
2023-04-27T19:57:21.610Z,134.75
2023-04-27T19:59:48.422Z,135.25
2023-04-27T20:02:15.400Z,131.77
2023-04-27T20:04:42.213Z,126.18
2023-04-27T20:07:09.625Z,132.55
2023-04-27T20:09:36.857Z,132.45
2023-04-27T20:12:04.195Z,132.85
2023-04-27T20:14:33.606Z,139.57
2023-04-27T20:17:00.549Z,139.73
2023-04-27T20:19:27.168Z,140.10
2023-04-27T20:21:54.177Z,140.40
2023-04-27T20:24:20.806Z,139.32
2023-04-27T20:26:47.427Z,143.63
2023-04-27T20:29:14.141Z,139.90
2023-04-27T20:31:41.103Z,140.15
2023-04-27T20:34:07.769Z,140.90
2023-04-27T20:36:34.323Z,140.45
2023-04-27T20:39:00.912Z,141.20
2023-04-27T20:41:27.890Z,141.40
2023-04-27T20:43:54.368Z,139.80
2023-04-27T20:46:21.034Z,139.80
2023-04-27T20:48:47.575Z,139.90
2023-04-27T20:51:14.106Z,134.85
2023-04-27T20:53:40.806Z,142.60
2023-04-27T20:56:07.366Z,141.27
2023-04-27T20:58:33.904Z,140.43
2023-04-27T21:01:00.460Z,143.20
2023-04-27T21:03:27.151Z,141.05
2023-04-27T21:05:54.234Z,140.88
2023-04-27T21:08:20.733Z,140.00
2023-04-27T21:10:47.252Z,140.57
2023-04-27T21:13:13.930Z,140.30
2023-04-27T21:15:40.732Z,135.10
2023-04-27T21:18:13.498Z,139.87
2023-04-27T21:20:45.654Z,140.30
2023-04-27T21:23:14.583Z,141.00
2023-04-27T21:25:45.185Z,141.30
2023-04-27T21:28:11.896Z,138.50
2023-04-27T21:30:38.442Z,140.65
2023-04-27T21:33:05.124Z,140.30
2023-04-27T21:35:31.922Z,139.50
2023-04-27T21:37:58.636Z,142.57
2023-04-27T21:40:25.159Z,141.15
2023-04-27T21:42:52.549Z,142.27
2023-04-27T21:45:19.327Z,140.27
2023-04-27T21:47:46.014Z,140.00
2023-04-27T21:50:12.873Z,138.00
2023-04-27T21:52:39.384Z,138.53
2023-04-27T21:55:06.004Z,138.50
2023-04-27T21:57:32.631Z,136.32
2023-04-27T21:59:59.561Z,139.13
2023-04-27T22:02:26.281Z,139.20
2023-04-27T22:04:53.053Z,138.15
2023-04-27T22:07:19.591Z,138.27
2023-04-27T22:09:46.312Z,136.90
2023-04-27T22:12:12.836Z,139.20
2023-04-27T22:14:39.373Z,136.10
2023-04-27T22:17:05.875Z,135.03
2023-04-27T22:19:32.372Z,134.90
2023-04-27T22:21:58.859Z,134.90
2023-04-27T22:24:25.460Z,135.73
2023-04-27T22:26:52.109Z,135.90
2023-04-27T22:29:18.608Z,135.65
2023-04-27T22:31:45.528Z,136.32
2023-04-27T22:34:12.904Z,140.10
2023-04-27T22:36:39.589Z,142.50
2023-04-27T22:39:07.152Z,142.00
2023-04-27T22:41:34.075Z,141.65
2023-04-27T22:44:00.669Z,135.50
2023-04-27T22:46:27.178Z,141.20
2023-04-27T22:48:53.940Z,140.77
2023-04-27T22:51:21.595Z,140.07
2023-04-27T22:53:48.752Z,140.30
2023-04-27T22:56:15.246Z,141.10
2023-04-27T22:58:41.724Z,141.00
2023-04-27T23:01:08.425Z,138.40
2023-04-27T23:03:35.289Z,139.97
2023-04-27T23:06:01.892Z,140.10
2023-04-27T23:08:28.926Z,140.50
2023-04-27T23:10:56.228Z,139.63
2023-04-27T23:13:26.670Z,137.93
2023-04-27T23:15:56.812Z,132.77
2023-04-27T23:18:23.711Z,138.43
2023-04-27T23:20:55.996Z,138.80
2023-04-27T23:23:22.502Z,139.48
2023-04-27T23:25:49.125Z,140.60
2023-04-27T23:28:15.730Z,138.70
2023-04-27T23:30:42.259Z,136.60
2023-04-27T23:33:08.781Z,136.30
2023-04-27T23:35:35.255Z,137.10
2023-04-27T23:38:01.779Z,136.95
2023-04-27T23:40:28.293Z,136.10
2023-04-27T23:42:55.718Z,134.02
2023-04-27T23:45:22.181Z,134.90
2023-04-27T23:47:48.685Z,138.48
2023-04-27T23:50:15.607Z,137.57
2023-04-27T23:52:42.634Z,138.00
2023-04-27T23:55:09.447Z,139.13
2023-04-27T23:57:36.115Z,140.55
